sensor_id;sensor_type;location;lat;lon;timestamp;pressure;altitude;pressure_sealevel;temperature;humidity
57562;BME280;43397;51.530;5.974;2023-02-18T00:00:18;101850.47;;;11.70;100.00
57562;BME280;43397;51.530;5.974;2023-02-18T00:02:45;101833.63;;;11.69;100.00
57562;BME280;43397;51.530;5.974;2023-02-18T00:05:11;101839.88;;;11.85;100.00
57562;BME280;43397;51.530;5.974;2023-02-18T00:07:38;101842.50;;;11.71;100.00
57562;BME280;43397;51.530;5.974;2023-02-18T00:10:06;101835.50;;;12.04;100.00
57562;BME280;43397;51.530;5.974;2023-02-18T00:12:33;101825.72;;;12.08;100.00
57562;BME280;43397;51.530;5.974;2023-02-18T00:15:00;101814.97;;;11.69;100.00
57562;BME280;43397;51.530;5.974;2023-02-18T00:17:27;101828.31;;;11.69;100.00
57562;BME280;43397;51.530;5.974;2023-02-18T00:19:53;101802.53;;;11.59;100.00
57562;BME280;43397;51.530;5.974;2023-02-18T00:22:18;101823.94;;;11.91;100.00
57562;BME280;43397;51.530;5.974;2023-02-18T00:24:44;101822.06;;;11.73;100.00
57562;BME280;43397;51.530;5.974;2023-02-18T00:27:10;101807.00;;;11.77;100.00
57562;BME280;43397;51.530;5.974;2023-02-18T00:29:36;101814.97;;;11.69;100.00
57562;BME280;43397;51.530;5.974;2023-02-18T00:32:03;101809.63;;;11.65;100.00
57562;BME280;43397;51.530;5.974;2023-02-18T00:34:29;101810.56;;;11.85;100.00
57562;BME280;43397;51.530;5.974;2023-02-18T00:36:54;101793.66;;;11.68;100.00
57562;BME280;43397;51.530;5.974;2023-02-18T00:39:20;101820.38;;;11.97;100.00
57562;BME280;43397;51.530;5.974;2023-02-18T00:41:46;101808.78;;;11.80;100.00
57562;BME280;43397;51.530;5.974;2023-02-18T00:44:13;101804.41;;;12.05;100.00
57562;BME280;43397;51.530;5.974;2023-02-18T00:46:39;101806.19;;;12.09;100.00
57562;BME280;43397;51.530;5.974;2023-02-18T00:49:06;101798.06;;;11.58;100.00
57562;BME280;43397;51.530;5.974;2023-02-18T00:51:33;101791.00;;;11.66;100.00
57562;BME280;43397;51.530;5.974;2023-02-18T00:53:59;101789.22;;;11.70;100.00
57562;BME280;43397;51.530;5.974;2023-02-18T00:56:24;101798.09;;;11.69;100.00
57562;BME280;43397;51.530;5.974;2023-02-18T00:58:50;101789.22;;;11.67;100.00
57562;BME280;43397;51.530;5.974;2023-02-18T01:01:17;101787.44;;;11.61;100.00
57562;BME280;43397;51.530;5.974;2023-02-18T01:03:44;101772.34;;;11.66;100.00
57562;BME280;43397;51.530;5.974;2023-02-18T01:06:12;101757.19;;;11.38;100.00
57562;BME280;43397;51.530;5.974;2023-02-18T01:08:39;101758.09;;;11.49;100.00
57562;BME280;43397;51.530;5.974;2023-02-18T01:11:06;101763.44;;;11.58;100.00
57562;BME280;43397;51.530;5.974;2023-02-18T01:13:32;101775.00;;;11.59;100.00
57562;BME280;43397;51.530;5.974;2023-02-18T01:15:58;101781.19;;;11.51;100.00
57562;BME280;43397;51.530;5.974;2023-02-18T01:18:25;101770.53;;;11.53;100.00
57562;BME280;43397;51.530;5.974;2023-02-18T01:20:51;101768.78;;;11.55;100.00
57562;BME280;43397;51.530;5.974;2023-02-18T01:23:18;101764.31;;;11.49;100.00
57562;BME280;43397;51.530;5.974;2023-02-18T01:25:44;101768.75;;;11.40;100.00
57562;BME280;43397;51.530;5.974;2023-02-18T01:28:12;101756.34;;;11.43;100.00
57562;BME280;43397;51.530;5.974;2023-02-18T01:30:40;101744.78;;;11.43;100.00
57562;BME280;43397;51.530;5.974;2023-02-18T01:33:07;101744.75;;;11.33;100.00
57562;BME280;43397;51.530;5.974;2023-02-18T01:35:33;101752.78;;;11.47;100.00
57562;BME280;43397;51.530;5.974;2023-02-18T01:38:02;101748.28;;;11.29;100.00
57562;BME280;43397;51.530;5.974;2023-02-18T01:40:30;101736.75;;;11.23;100.00
57562;BME280;43397;51.530;5.974;2023-02-18T01:42:56;101753.59;;;11.23;100.00
57562;BME280;43397;51.530;5.974;2023-02-18T01:45:55;101753.63;;;11.26;100.00
57562;BME280;43397;51.530;5.974;2023-02-18T01:48:24;101743.88;;;11.31;100.00
57562;BME280;43397;51.530;5.974;2023-02-18T01:50:56;101745.63;;;11.17;100.00
57562;BME280;43397;51.530;5.974;2023-02-18T01:53:26;101726.97;;;11.11;100.00
57562;BME280;43397;51.530;5.974;2023-02-18T01:55:54;101736.72;;;11.17;100.00
57562;BME280;43397;51.530;5.974;2023-02-18T01:58:20;101738.59;;;11.48;100.00
57562;BME280;43397;51.530;5.974;2023-02-18T02:00:46;101740.41;;;11.68;100.00
57562;BME280;43397;51.530;5.974;2023-02-18T02:03:12;101726.16;;;11.49;100.00
57562;BME280;43397;51.530;5.974;2023-02-18T02:05:38;101738.59;;;11.44;100.00
57562;BME280;43397;51.530;5.974;2023-02-18T02:08:04;101741.28;;;11.50;100.00
57562;BME280;43397;51.530;5.974;2023-02-18T02:10:41;101732.38;;;11.51;100.00
57562;BME280;43397;51.530;5.974;2023-02-18T02:13:14;101721.69;;;11.39;100.00
57562;BME280;43397;51.530;5.974;2023-02-18T02:15:48;101711.78;;;10.88;100.00
57562;BME280;43397;51.530;5.974;2023-02-18T02:18:24;101730.44;;;10.95;100.00
57562;BME280;43397;51.530;5.974;2023-02-18T02:21:12;101713.53;;;10.83;100.00
57562;BME280;43397;51.530;5.974;2023-02-18T02:27:13;101714.63;;;11.42;100.00
57562;BME280;43397;51.530;5.974;2023-02-18T02:30:00;101716.22;;;10.93;100.00
57562;BME280;43397;51.530;5.974;2023-02-18T02:32:51;101704.72;;;10.89;100.00
57562;BME280;43397;51.530;5.974;2023-02-18T02:35:22;101702.91;;;10.86;100.00
57562;BME280;43397;51.530;5.974;2023-02-18T02:37:53;101686.03;;;10.81;100.00
57562;BME280;43397;51.530;5.974;2023-02-18T02:40:23;101703.81;;;10.88;100.00
57562;BME280;43397;51.530;5.974;2023-02-18T02:42:59;101696.72;;;10.84;100.00
57562;BME280;43397;51.530;5.974;2023-02-18T02:45:32;101693.19;;;10.91;100.00
57562;BME280;43397;51.530;5.974;2023-02-18T02:48:09;101686.09;;;10.95;100.00
57562;BME280;43397;51.530;5.974;2023-02-18T02:50:45;101684.34;;;10.91;100.00
57562;BME280;43397;51.530;5.974;2023-02-18T02:53:14;101668.31;;;10.82;100.00
57562;BME280;43397;51.530;5.974;2023-02-18T02:55:41;101665.72;;;10.96;100.00
57562;BME280;43397;51.530;5.974;2023-02-18T02:58:13;101671.00;;;10.88;100.00
57562;BME280;43397;51.530;5.974;2023-02-18T03:00:51;101661.22;;;10.81;100.00
57562;BME280;43397;51.530;5.974;2023-02-18T03:03:25;101663.91;;;10.85;100.00
57562;BME280;43397;51.530;5.974;2023-02-18T03:06:16;101647.94;;;10.82;100.00
57562;BME280;43397;51.530;5.974;2023-02-18T03:08:51;101637.31;;;10.85;100.00
57562;BME280;43397;51.530;5.974;2023-02-18T03:11:22;101639.97;;;10.85;100.00
57562;BME280;43397;51.530;5.974;2023-02-18T03:13:55;101639.13;;;10.96;100.00
57562;BME280;43397;51.530;5.974;2023-02-18T03:16:25;101622.34;;;11.26;100.00
57562;BME280;43397;51.530;5.974;2023-02-18T03:18:57;101614.34;;;11.30;100.00
57562;BME280;43397;51.530;5.974;2023-02-18T03:21:28;101602.81;;;11.36;100.00
57562;BME280;43397;51.530;5.974;2023-02-18T03:23:57;101602.81;;;11.13;100.00
57562;BME280;43397;51.530;5.974;2023-02-18T03:26:24;101594.84;;;11.33;100.00
57562;BME280;43397;51.530;5.974;2023-02-18T03:28:52;101588.63;;;11.31;100.00
57562;BME280;43397;51.530;5.974;2023-02-18T03:31:20;101596.59;;;11.39;100.00
57562;BME280;43397;51.530;5.974;2023-02-18T03:33:53;101597.50;;;11.47;100.00
57562;BME280;43397;51.530;5.974;2023-02-18T03:36:20;101591.28;;;11.45;100.00
57562;BME280;43397;51.530;5.974;2023-02-18T03:38:53;101600.16;;;11.42;100.00
57562;BME280;43397;51.530;5.974;2023-02-18T03:41:21;101590.38;;;11.23;100.00
57562;BME280;43397;51.530;5.974;2023-02-18T03:43:50;101588.63;;;11.46;100.00
57562;BME280;43397;51.530;5.974;2023-02-18T03:46:15;101585.97;;;11.17;100.00
57562;BME280;43397;51.530;5.974;2023-02-18T03:48:42;101576.22;;;11.33;100.00
57562;BME280;43397;51.530;5.974;2023-02-18T03:51:08;101572.66;;;11.17;100.00
57562;BME280;43397;51.530;5.974;2023-02-18T03:53:33;101579.72;;;11.12;100.00
57562;BME280;43397;51.530;5.974;2023-02-18T03:56:00;101570.00;;;11.20;100.00
57562;BME280;43397;51.530;5.974;2023-02-18T03:58:26;101556.66;;;10.96;100.00
57562;BME280;43397;51.530;5.974;2023-02-18T04:00:52;101561.09;;;10.84;100.00
57562;BME280;43397;51.530;5.974;2023-02-18T04:03:17;101562.00;;;11.11;100.00
57562;BME280;43397;51.530;5.974;2023-02-18T04:05:43;101550.44;;;10.92;100.00
57562;BME280;43397;51.530;5.974;2023-02-18T04:08:09;101546.00;;;10.93;100.00
57562;BME280;43397;51.530;5.974;2023-02-18T04:10:35;101554.91;;;10.93;100.00
57562;BME280;43397;51.530;5.974;2023-02-18T04:13:02;101557.53;;;10.99;100.00
57562;BME280;43397;51.530;5.974;2023-02-18T04:15:28;101543.34;;;10.97;100.00
57562;BME280;43397;51.530;5.974;2023-02-18T04:17:54;101552.22;;;10.90;100.00
57562;BME280;43397;51.530;5.974;2023-02-18T04:20:20;101545.13;;;10.92;100.00
57562;BME280;43397;51.530;5.974;2023-02-18T04:22:45;101541.56;;;10.85;100.00
57562;BME280;43397;51.530;5.974;2023-02-18T04:25:11;101550.41;;;10.80;100.00
57562;BME280;43397;51.530;5.974;2023-02-18T04:27:37;101529.16;;;10.83;100.00
57562;BME280;43397;51.530;5.974;2023-02-18T04:30:05;101536.25;;;10.84;100.00
57562;BME280;43397;51.530;5.974;2023-02-18T04:32:31;101536.28;;;10.93;100.00
57562;BME280;43397;51.530;5.974;2023-02-18T04:34:57;101538.94;;;10.93;100.00
57562;BME280;43397;51.530;5.974;2023-02-18T04:37:24;101536.25;;;10.88;100.00
57562;BME280;43397;51.530;5.974;2023-02-18T04:39:49;101520.31;;;10.82;100.00
57562;BME280;43397;51.530;5.974;2023-02-18T04:42:15;101522.09;;;10.91;100.00
57562;BME280;43397;51.530;5.974;2023-02-18T04:44:41;101530.06;;;10.85;100.00
57562;BME280;43397;51.530;5.974;2023-02-18T04:47:08;101507.88;;;10.74;100.00
57562;BME280;43397;51.530;5.974;2023-02-18T04:49:34;101511.44;;;10.76;100.00
57562;BME280;43397;51.530;5.974;2023-02-18T04:52:00;101516.75;;;10.88;100.00
57562;BME280;43397;51.530;5.974;2023-02-18T04:54:26;101506.13;;;10.79;100.00
57562;BME280;43397;51.530;5.974;2023-02-18T04:56:52;101516.75;;;10.85;100.00
57562;BME280;43397;51.530;5.974;2023-02-18T04:59:17;101504.34;;;10.85;100.00
57562;BME280;43397;51.530;5.974;2023-02-18T05:01:43;101507.00;;;10.84;100.00
57562;BME280;43397;51.530;5.974;2023-02-18T05:04:10;101507.91;;;10.84;100.00
57562;BME280;43397;51.530;5.974;2023-02-18T05:06:36;101499.03;;;10.72;100.00
57562;BME280;43397;51.530;5.974;2023-02-18T05:09:02;101505.25;;;10.89;100.00
57562;BME280;43397;51.530;5.974;2023-02-18T05:11:28;101503.44;;;10.77;100.00
57562;BME280;43397;51.530;5.974;2023-02-18T05:13:53;101490.16;;;10.80;100.00
57562;BME280;43397;51.530;5.974;2023-02-18T05:16:19;101495.50;;;10.76;100.00
57562;BME280;43397;51.530;5.974;2023-02-18T05:18:45;101493.69;;;10.75;100.00
57562;BME280;43397;51.530;5.974;2023-02-18T05:21:12;101501.69;;;10.72;100.00
57562;BME280;43397;51.530;5.974;2023-02-18T05:23:37;101501.69;;;10.84;100.00
57562;BME280;43397;51.530;5.974;2023-02-18T05:26:04;101498.13;;;10.63;100.00
57562;BME280;43397;51.530;5.974;2023-02-18T05:28:30;101494.59;;;10.74;100.00
57562;BME280;43397;51.530;5.974;2023-02-18T05:30:56;101480.41;;;10.79;100.00
57562;BME280;43397;51.530;5.974;2023-02-18T05:33:22;101472.44;;;10.76;100.00
57562;BME280;43397;51.530;5.974;2023-02-18T05:35:47;101458.22;;;10.71;100.00
57562;BME280;43397;51.530;5.974;2023-02-18T05:38:14;101473.31;;;10.80;100.00
57562;BME280;43397;51.530;5.974;2023-02-18T05:40:40;101476.84;;;10.71;100.00
57562;BME280;43397;51.530;5.974;2023-02-18T05:43:07;101465.31;;;10.66;100.00
57562;BME280;43397;51.530;5.974;2023-02-18T05:45:33;101452.94;;;10.69;100.00
57562;BME280;43397;51.530;5.974;2023-02-18T05:47:59;101465.31;;;10.80;100.00
57562;BME280;43397;51.530;5.974;2023-02-18T05:50:25;101466.22;;;10.74;100.00
57562;BME280;43397;51.530;5.974;2023-02-18T05:52:50;101460.91;;;10.77;100.00
57562;BME280;43397;51.530;5.974;2023-02-18T05:55:18;101467.13;;;10.82;100.00
57562;BME280;43397;51.530;5.974;2023-02-18T05:57:43;101456.47;;;10.75;100.00
57562;BME280;43397;51.530;5.974;2023-02-18T06:00:10;101457.34;;;10.69;100.00
57562;BME280;43397;51.530;5.974;2023-02-18T06:02:36;101454.69;;;10.64;100.00
57562;BME280;43397;51.530;5.974;2023-02-18T06:05:02;101447.63;;;10.76;100.00
57562;BME280;43397;51.530;5.974;2023-02-18T06:07:28;101441.41;;;10.70;100.00
57562;BME280;43397;51.530;5.974;2023-02-18T06:09:55;101429.00;;;10.62;100.00
57562;BME280;43397;51.530;5.974;2023-02-18T06:12:23;101433.44;;;10.66;100.00
57562;BME280;43397;51.530;5.974;2023-02-18T06:14:49;101436.09;;;10.66;100.00
57562;BME280;43397;51.530;5.974;2023-02-18T06:17:15;101426.31;;;10.60;100.00
57562;BME280;43397;51.530;5.974;2023-02-18T06:19:41;101449.38;;;10.64;100.00
57562;BME280;43397;51.530;5.974;2023-02-18T06:22:06;101441.38;;;10.55;100.00
57562;BME280;43397;51.530;5.974;2023-02-18T06:24:33;101436.97;;;10.63;100.00
57562;BME280;43397;51.530;5.974;2023-02-18T06:26:58;101438.75;;;10.66;100.00
57562;BME280;43397;51.530;5.974;2023-02-18T06:29:26;101449.38;;;10.55;100.00
57562;BME280;43397;51.530;5.974;2023-02-18T06:31:51;101447.63;;;10.65;100.00
57562;BME280;43397;51.530;5.974;2023-02-18T06:34:17;101451.13;;;10.62;100.00
57562;BME280;43397;51.530;5.974;2023-02-18T06:36:44;101467.06;;;10.53;100.00
57562;BME280;43397;51.530;5.974;2023-02-18T06:39:10;101462.69;;;10.58;100.00
57562;BME280;43397;51.530;5.974;2023-02-18T06:41:35;101461.78;;;10.50;100.00
57562;BME280;43397;51.530;5.974;2023-02-18T06:44:02;101455.56;;;10.60;100.00
57562;BME280;43397;51.530;5.974;2023-02-18T06:46:29;101449.34;;;10.46;100.00
57562;BME280;43397;51.530;5.974;2023-02-18T06:48:54;101439.59;;;10.45;100.00
57562;BME280;43397;51.530;5.974;2023-02-18T06:51:20;101460.88;;;10.49;100.00
57562;BME280;43397;51.530;5.974;2023-02-18T06:53:46;101439.63;;;10.53;100.00
57562;BME280;43397;51.530;5.974;2023-02-18T06:56:12;101427.19;;;10.42;100.00
57562;BME280;43397;51.530;5.974;2023-02-18T06:58:40;101421.91;;;10.55;100.00
57562;BME280;43397;51.530;5.974;2023-02-18T07:01:06;101449.34;;;10.46;100.00
57562;BME280;43397;51.530;5.974;2023-02-18T07:03:34;101444.03;;;10.54;100.00
57562;BME280;43397;51.530;5.974;2023-02-18T07:05:59;101451.13;;;10.53;100.00
57562;BME280;43397;51.530;5.974;2023-02-18T07:08:25;101447.56;;;10.45;100.00
57562;BME280;43397;51.530;5.974;2023-02-18T07:10:51;101429.88;;;10.45;100.00
57562;BME280;43397;51.530;5.974;2023-02-18T07:13:17;101453.78;;;10.48;100.00
57562;BME280;43397;51.530;5.974;2023-02-18T07:15:43;101449.38;;;10.47;100.00
57562;BME280;43397;51.530;5.974;2023-02-18T07:18:09;101436.06;;;10.54;100.00
57562;BME280;43397;51.530;5.974;2023-02-18T07:20:36;101467.06;;;10.45;100.00
57562;BME280;43397;51.530;5.974;2023-02-18T07:23:01;101472.38;;;10.44;100.00
57562;BME280;43397;51.530;5.974;2023-02-18T07:25:29;101464.38;;;10.36;100.00
57562;BME280;43397;51.530;5.974;2023-02-18T07:27:54;101468.88;;;10.49;100.00
57562;BME280;43397;51.530;5.974;2023-02-18T07:30:20;101455.53;;;10.40;100.00
57562;BME280;43397;51.530;5.974;2023-02-18T07:32:46;101461.75;;;10.45;100.00
57562;BME280;43397;51.530;5.974;2023-02-18T07:35:14;101462.59;;;10.34;100.00
57562;BME280;43397;51.530;5.974;2023-02-18T07:37:45;101464.38;;;10.32;100.00
57562;BME280;43397;51.530;5.974;2023-02-18T07:40:13;101447.56;;;10.33;100.00
57562;BME280;43397;51.530;5.974;2023-02-18T07:42:39;101460.81;;;10.34;100.00
57562;BME280;43397;51.530;5.974;2023-02-18T07:45:05;101441.25;;;10.04;100.00
57562;BME280;43397;51.530;5.974;2023-02-18T07:47:33;101451.00;;;10.07;100.00
57562;BME280;43397;51.530;5.974;2023-02-18T07:49:58;101469.59;;;10.04;100.00
57562;BME280;43397;51.530;5.974;2023-02-18T07:52:26;101474.81;;;9.95;100.00
57562;BME280;43397;51.530;5.974;2023-02-18T07:54:54;101475.75;;;10.00;100.00
57562;BME280;43397;51.530;5.974;2023-02-18T07:57:20;101476.59;;;9.89;100.00
57562;BME280;43397;51.530;5.974;2023-02-18T07:59:46;101466.03;;;10.09;100.00
57562;BME280;43397;51.530;5.974;2023-02-18T08:02:16;101501.47;;;10.08;100.00
57562;BME280;43397;51.530;5.974;2023-02-18T08:04:42;101484.59;;;9.96;100.00
57562;BME280;43397;51.530;5.974;2023-02-18T08:07:11;101477.47;;;9.92;100.00
57562;BME280;43397;51.530;5.974;2023-02-18T08:09:37;101481.06;;;9.98;100.00
57562;BME280;43397;51.530;5.974;2023-02-18T08:12:06;101486.38;;;10.01;100.00
57562;BME280;43397;51.530;5.974;2023-02-18T08:14:33;101473.94;;;9.91;100.00
57562;BME280;43397;51.530;5.974;2023-02-18T08:16:58;101479.28;;;9.99;100.00
57562;BME280;43397;51.530;5.974;2023-02-18T08:19:24;101475.75;;;10.00;100.00
57562;BME280;43397;51.530;5.974;2023-02-18T08:21:50;101483.72;;;9.98;100.00
57562;BME280;43397;51.530;5.974;2023-02-18T08:24:16;101495.25;;;10.02;100.00
57562;BME280;43397;51.530;5.974;2023-02-18T08:26:42;101467.72;;;9.84;100.00
57562;BME280;43397;51.530;5.974;2023-02-18T08:29:09;101469.50;;;9.95;100.00
57562;BME280;43397;51.530;5.974;2023-02-18T08:31:35;101481.06;;;10.06;100.00
57562;BME280;43397;51.530;5.974;2023-02-18T08:34:01;101488.13;;;9.93;100.00
57562;BME280;43397;51.530;5.974;2023-02-18T08:36:27;101489.88;;;9.93;100.00
57562;BME280;43397;51.530;5.974;2023-02-18T08:38:55;101488.09;;;9.95;100.00
57562;BME280;43397;51.530;5.974;2023-02-18T08:41:21;101496.09;;;9.98;100.00
57562;BME280;43397;51.530;5.974;2023-02-18T08:43:47;101473.09;;;10.01;100.00
57562;BME280;43397;51.530;5.974;2023-02-18T08:46:15;101481.94;;;9.99;100.00
57562;BME280;43397;51.530;5.974;2023-02-18T08:48:41;101486.41;;;10.09;100.00
57562;BME280;43397;51.530;5.974;2023-02-18T08:51:12;101480.31;;;10.30;100.00
57562;BME280;43397;51.530;5.974;2023-02-18T08:53:38;101491.03;;;10.76;100.00
57562;BME280;43397;51.530;5.974;2023-02-18T08:56:05;101480.41;;;10.84;100.00
57562;BME280;43397;51.530;5.974;2023-02-18T08:58:31;101473.31;;;10.75;100.00
57562;BME280;43397;51.530;5.974;2023-02-18T09:01:00;101481.25;;;10.54;100.00
57562;BME280;43397;51.530;5.974;2023-02-18T09:03:28;101471.50;;;10.46;100.00
57562;BME280;43397;51.530;5.974;2023-02-18T09:05:53;101479.47;;;10.51;100.00
57562;BME280;43397;51.530;5.974;2023-02-18T09:08:19;101483.91;;;10.49;100.00
57562;BME280;43397;51.530;5.974;2023-02-18T09:10:45;101490.19;;;10.96;100.00
57562;BME280;43397;51.530;5.974;2023-02-18T09:13:11;101496.38;;;11.11;100.00
57562;BME280;43397;51.530;5.974;2023-02-18T09:15:37;101486.63;;;11.04;100.00
57562;BME280;43397;51.530;5.974;2023-02-18T09:18:03;101487.53;;;11.00;100.00
57562;BME280;43397;51.530;5.974;2023-02-18T09:20:31;101481.31;;;11.04;100.00
57562;BME280;43397;51.530;5.974;2023-02-18T09:22:57;101464.47;;;10.87;100.00
57562;BME280;43397;51.530;5.974;2023-02-18T09:25:23;101474.22;;;10.91;100.00
57562;BME280;43397;51.530;5.974;2023-02-18T09:27:49;101465.34;;;10.89;100.00
57562;BME280;43397;51.530;5.974;2023-02-18T09:30:15;101472.44;;;10.91;100.00
57562;BME280;43397;51.530;5.974;2023-02-18T09:32:41;101488.41;;;10.96;100.00
57562;BME280;43397;51.530;5.974;2023-02-18T09:35:07;101473.31;;;10.87;100.00
57562;BME280;43397;51.530;5.974;2023-02-18T09:37:35;101460.00;;;10.55;100.00
57562;BME280;43397;51.530;5.974;2023-02-18T09:40:00;101474.19;;;10.68;100.00
57562;BME280;43397;51.530;5.974;2023-02-18T09:42:29;101492.81;;;10.82;100.00
57562;BME280;43397;51.530;5.974;2023-02-18T09:44:59;101484.84;;;10.69;100.00
57562;BME280;43397;51.530;5.974;2023-02-18T09:47:30;101477.72;;;10.59;100.00
57562;BME280;43397;51.530;5.974;2023-02-18T09:50:00;101470.59;;;10.38;100.00
57562;BME280;43397;51.530;5.974;2023-02-18T09:52:31;101459.81;;;10.03;100.00
57562;BME280;43397;51.530;5.974;2023-02-18T09:55:00;101475.97;;;10.63;100.00
57562;BME280;43397;51.530;5.974;2023-02-18T09:57:29;101464.44;;;10.62;100.00
57562;BME280;43397;51.530;5.974;2023-02-18T10:00:04;101486.59;;;10.64;100.00
57562;BME280;43397;51.530;5.974;2023-02-18T10:02:31;101482.19;;;10.80;100.00
57562;BME280;43397;51.530;5.974;2023-02-18T10:04:57;101467.97;;;10.61;100.00
57562;BME280;43397;51.530;5.974;2023-02-18T10:07:25;101457.34;;;10.55;100.00
57562;BME280;43397;51.530;5.974;2023-02-18T10:09:54;101474.19;;;10.66;100.00
57562;BME280;43397;51.530;5.974;2023-02-18T10:12:24;101460.88;;;10.53;100.00
57562;BME280;43397;51.530;5.974;2023-02-18T10:14:51;101498.09;;;10.62;100.00
57562;BME280;43397;51.530;5.974;2023-02-18T10:17:19;101485.72;;;10.76;100.00
57562;BME280;43397;51.530;5.974;2023-02-18T10:19:47;101487.50;;;10.69;100.00
57562;BME280;43397;51.530;5.974;2023-02-18T10:22:15;101475.94;;;10.64;100.00
57562;BME280;43397;51.530;5.974;2023-02-18T10:24:43;101478.66;;;10.74;100.00
57562;BME280;43397;51.530;5.974;2023-02-18T10:27:26;101482.16;;;10.73;100.00
57562;BME280;43397;51.530;5.974;2023-02-18T10:29:53;101482.19;;;10.65;100.00
57562;BME280;43397;51.530;5.974;2023-02-18T10:32:22;101493.69;;;10.79;100.00
57562;BME280;43397;51.530;5.974;2023-02-18T10:34:51;101496.34;;;10.78;100.00
57562;BME280;43397;51.530;5.974;2023-02-18T10:40:19;101517.59;;;10.62;100.00
57562;BME280;43397;51.530;5.974;2023-02-18T10:42:58;101497.16;;;10.38;100.00
57562;BME280;43397;51.530;5.974;2023-02-18T10:45:29;101526.41;;;10.43;100.00
57562;BME280;43397;51.530;5.974;2023-02-18T10:48:08;101526.41;;;10.49;100.00
57562;BME280;43397;51.530;5.974;2023-02-18T10:50:39;101518.41;;;10.31;100.00
57562;BME280;43397;51.530;5.974;2023-02-18T10:53:11;101543.22;;;10.37;100.00
57562;BME280;43397;51.530;5.974;2023-02-18T10:55:40;101549.41;;;10.38;100.00
57562;BME280;43397;51.530;5.974;2023-02-18T10:58:27;101531.59;;;10.23;100.00
57562;BME280;43397;51.530;5.974;2023-02-18T11:00:56;101535.19;;;10.28;100.00
57562;BME280;43397;51.530;5.974;2023-02-18T11:03:27;101544.09;;;10.30;100.00
57562;BME280;43397;51.530;5.974;2023-02-18T11:06:04;101537.81;;;10.25;100.00
57562;BME280;43397;51.530;5.974;2023-02-18T11:08:38;101530.84;;;10.42;100.00
57562;BME280;43397;51.530;5.974;2023-02-18T11:11:09;101532.53;;;10.26;100.00
57562;BME280;43397;51.530;5.974;2023-02-18T11:13:39;101533.41;;;10.27;100.00
57562;BME280;43397;51.530;5.974;2023-02-18T11:16:06;101544.09;;;10.30;100.00
57562;BME280;43397;51.530;5.974;2023-02-18T11:18:37;101540.53;;;10.29;100.00
57562;BME280;43397;51.530;5.974;2023-02-18T11:21:05;101533.47;;;10.36;100.00
57562;BME280;43397;51.530;5.974;2023-02-18T11:23:45;101546.78;;;10.39;100.00
57562;BME280;43397;51.530;5.974;2023-02-18T11:26:12;101544.22;;;10.70;100.00
57562;BME280;43397;51.530;5.974;2023-02-18T11:28:46;101547.69;;;10.46;100.00
57562;BME280;43397;51.530;5.974;2023-02-18T11:31:20;101545.13;;;10.83;100.00
57562;BME280;43397;51.530;5.974;2023-02-18T11:33:49;101545.13;;;10.86;100.00
57562;BME280;43397;51.530;5.974;2023-02-18T11:36:19;101535.34;;;10.74;100.00
57562;BME280;43397;51.530;5.974;2023-02-18T11:38:48;101555.78;;;11.00;100.00
57562;BME280;43397;51.530;5.974;2023-02-18T11:41:17;101541.56;;;10.88;100.00
57562;BME280;43397;51.530;5.974;2023-02-18T11:43:48;101541.59;;;11.15;100.00
57562;BME280;43397;51.530;5.974;2023-02-18T11:46:16;101548.69;;;10.96;100.00
57562;BME280;43397;51.530;5.974;2023-02-18T11:48:42;101538.06;;;11.14;100.00
57562;BME280;43397;51.530;5.974;2023-02-18T11:51:15;101539.81;;;11.17;100.00
57562;BME280;43397;51.530;5.974;2023-02-18T11:53:54;101548.72;;;11.02;100.00
57562;BME280;43397;51.530;5.974;2023-02-18T11:56:20;101543.38;;;11.40;100.00
57562;BME280;43397;51.530;5.974;2023-02-18T11:58:47;101541.59;;;11.16;100.00
57562;BME280;43397;51.530;5.974;2023-02-18T12:01:26;101529.19;;;11.06;100.00
57562;BME280;43397;51.530;5.974;2023-02-18T12:03:57;101530.97;;;11.28;100.00
57562;BME280;43397;51.530;5.974;2023-02-18T12:06:29;101533.63;;;11.36;100.00
57562;BME280;43397;51.530;5.974;2023-02-18T12:09:02;101530.06;;;11.03;100.00
57562;BME280;43397;51.530;5.974;2023-02-18T12:11:32;101530.94;;;10.90;100.00
57562;BME280;43397;51.530;5.974;2023-02-18T12:14:02;101528.31;;;11.08;100.00
57562;BME280;43397;51.530;5.974;2023-02-18T12:16:33;101527.41;;;10.89;100.00
57562;BME280;43397;51.530;5.974;2023-02-18T12:19:21;101528.28;;;11.61;100.00
57562;BME280;43397;51.530;5.974;2023-02-18T12:21:56;101531.78;;;11.83;100.00
57562;BME280;43397;51.530;5.974;2023-02-18T12:24:41;101516.69;;;11.71;100.00
57562;BME280;43397;51.530;5.974;2023-02-18T12:27:16;101507.88;;;11.63;100.00
57562;BME280;43397;51.530;5.974;2023-02-18T12:32:58;101522.03;;;11.71;100.00
57562;BME280;43397;51.530;5.974;2023-02-18T12:35:48;101515.84;;;11.67;100.00
57562;BME280;43397;51.530;5.974;2023-02-18T12:38:31;101509.56;;;11.84;100.00
57562;BME280;43397;51.530;5.974;2023-02-18T12:41:17;101503.38;;;11.94;100.00
57562;BME280;43397;51.530;5.974;2023-02-18T12:43:56;101497.19;;;11.89;100.00
57562;BME280;43397;51.530;5.974;2023-02-18T12:46:38;101493.59;;;11.82;100.00
57562;BME280;43397;51.530;5.974;2023-02-18T12:49:23;101509.59;;;11.91;100.00
57562;BME280;43397;51.530;5.974;2023-02-18T12:52:11;101498.03;;;11.85;100.00
57562;BME280;43397;51.530;5.974;2023-02-18T12:54:48;101495.31;;;12.11;100.00
57562;BME280;43397;51.530;5.974;2023-02-18T12:57:33;101489.09;;;12.13;100.00